Wednesday, May 04, 2016
01:55 UTC
  |  Log In   |  Register Free
Airport Search:

Tracy Municipal Airport
(KTCY)

Tracy Municipal Airport Diagram
No Airport Diagram Available

FAA data valid effective Mar 31 2016 - May 26 2016 (unless otherwise noted).

 
 
 
 
 
 
 
 
 
 
 
 
 
 
Summary: Tracy Municipal (TCY)

Weather Summary


METAR for KTCY is not available. Closest METAR is for KLVK 18.0 nm SE
KLVK  (18.0 nm SE)   (most recent observation was updated at 40:05 UTC)
040053Z 28010KT 10SM CLR 23/12 A2988 RMK AO2 SLP116 T02330117

KMOD  (23.5 nm NW)   (most recent observation was updated at 40:05 UTC)
040053Z 34006KT 10SM CLR 28/09 A2985 RMK AO2 SLP108 T02830094 $

TAF for KTCY is not available.
KSCK
032326Z 0400/0424 29005KT P6SM OVC200

KLVK  (18.0 nm SE)   (most recent observation was updatred at 32:34 UTC)
032345Z 0400/0424 26012KT P6SM FEW020 BKN120 FM040800 28004KT P6SM SCT015 BKN120 FM041400 26004KT P6SM BKN012 BKN100 FM041700 27012KT P6SM SCT015 BKN080 FM042200 27006KT P6SM SCT012 BKN080


KSJC  (30.4 nm NE)   (most recent observation was updatred at 32:34 UTC)
032345Z 0400/0424 30012KT P6SM FEW018 BKN100 FM040700 28004KT P6SM SCT015 BKN080 FM041000 VRB03KT P6SM SCT012 BKN080 FM041700 32012KT P6SM SCT016 BKN060 FM042200 30008KT P6SM SCT012 BKN040
GlobalAir.com is loading additional information.
Current weather conditions are not available for TCY.

The nearest NOAA weather station is at SCK (13.7 nm NE from TCY)
 Current Weather at SCK
81.0 F° (27.2 C°)
Fair
Northwest winds at 6.9 mph
Pressure:
29.87 in
Humidity:
38%
Wind:
Northwest at 6.9 MPH (6 KT)
Dew Point:
53.1 F° (11.7 C°)
Visibility:
10.00 mi
TCY NOAA Radar

Runway Summary

ID Dimensions Surface Instrument Approaches
12/30 75 ft x 4001 ft Asphalt, Fair Condition RNAV (GPS) RWY 12
RNAV (GPS) RWY 12
RNAV (GPS) RWY 26
RNAV (GPS) RWY 30
VOR/DME RWY 26
08/26 75 ft x 3438 ft Asphalt, Fair Condition RNAV (GPS) RWY 12
RNAV (GPS) RWY 26
RNAV (GPS) RWY 30
VOR/DME RWY 26

Communications Summary


CTAF123.075
UNICOM123.075
ATISN/A
WX AWOS-3
NORCAL APPROACH123.85
NORCAL DEPARTURE123.85
CLEARANCE DELIVERYN/A

Terminal Procedures Summary


Approaches
More Approaches
Special Minimums

Closest Alternate Airports with Instrument Procedures

CA54 - 33 Strip - 5.5 nm SE from TCY

CA54 - 33 Strip - 5.5 nm SE from TCY

CA54 - 33 Strip - 5.5 nm SE from TCY

KC83 - Byron - 13.9 nm NW from TCY

KSCK - Stockton Metropolitan - 18 nm NE from TCY

KLVK - Livermore Municipal - 20.7 nm NW from TCY

CA17 - Peterson - 26.3 nm NE from TCY

KMOD - Modesto City-Co-Harry Sham Fld - 27.1 nm SE from TCY

12CA - Faber Vineyards - 28.4 nm NE from TCY

CL11 - Ferdun Ranch - 28.7 nm NE from TCY

Find All Airport Services Find A Hotel Find A Rental Car Find A Golf Course Find A Restaurant $100 Hamburger



FBO's on the Field
FBO Company Facility Photos Services Transportation Aviation Fuel Prices: Prices include tax
Catering Weather Repair Courtesy Rental Type 100LL JetA JetA+ MOGAS 8087
 
SkyView Aviation LLC

Currently rated 5 by 1 person
FS:Avfuel
Last Updated: Apr-13
Login to update fuel prices
SS:
Contact SkyView Aviation LLCMore FBO Information
 
Add another FBO Facility Photos Catering Weather Repair Courtesy Rental Type 100LL JetA JetA+ MOGAS 8087
Services Transportation Aviation Fuel Prices: Prices include tax


model-print
model-print
model-print
model-print